Southern Ontario METAR Reports

CYSN - St.Catharines
Updated: 11/15/2019 3:00pm
Partly cloudy
Partly cloudy
 Wind from WSW
Wind: WSW 24 km/h, Gust: 35 km/h
Temperature: 2°C
Wind Chill: -3°C
Dew Point: -2°C
Humidity: 75%
Barometer: 1023.4 hPa
Clouds: Partly cloudy
Visibility: 16 km
Cloud details: Partly cloudy 1311 m
2019/11/15 20:00 CYSN 152000Z 24013G19KT 10SM SCT043 02/M02 A3022 RMK SC4 SLP237
CYHM - Hamilton
Updated: 11/15/2019 3:00pm
Mostly cloudy
Mostly cloudy
 Wind from WSW
Wind: WSW 20 km/h
Temperature: 0°C
Wind Chill: -6°C
Dew Point: -3°C
Humidity: 80%
Barometer: 1023 hPa
Clouds: Mostly cloudy
Visibility: 14 km
Cloud details: Few Clouds 488 m
Mostly cloudy 1036 m
2019/11/15 20:00 CYHM 152000Z 24011KT 9SM FEW016 BKN034 00/M03 A3021 RMK SC1SC6 SLP242
 
CYYZ - Toronto
Updated: 11/15/2019 3:00pm

 
2019/11/15 20:00 CYYZ 152000Z CCA 26010G15KT 15SM BKN050 03/M02 A3017 RMK SC6 SLP227
CYKF - Waterloo
Updated: 11/15/2019 3:23pm
Overcast
Overcast
 Wind from W
Wind: W 31 km/h
Temperature: 1°C
Wind Chill: -5°C
Dew Point: -2°C
Humidity: 81%
Barometer: 1022.4 hPa
Clouds: Overcast
Visibility: 14 km
Cloud details: Partly cloudy 701 m
Mostly cloudy 1067 m
Overcast 1280 m
2019/11/15 20:23 CYKF 152023Z AUTO 28017KT 9SM SCT023 BKN035 OVC042 01/M02 A3019 RMK SLP238
 
CYXU - London
Updated: 11/15/2019 3:00pm
Overcast
Overcast
 Wind from W
Wind: W 20 km/h
Temperature: 0°C
Wind Chill: -6°C
Dew Point: -3°C
Humidity: 80%
Barometer: 1024 hPa
Clouds: Overcast
Visibility: 16 km
Cloud details: Partly cloudy 549 m
Overcast 701 m
2019/11/15 20:00 CYXU 152000Z 26011KT 10SM SCT018 OVC023 00/M03 A3024 RMK SC3SC5 SLP253
CYQG - Windsor
Updated: 11/15/2019 3:00pm
Overcast
Overcast
 Wind from NW
Wind: NW 13 km/h
Temperature: 1°C
Wind Chill: -3°C
Dew Point: -3°C
Humidity: 75%
Barometer: 1026.1 hPa
Clouds: Overcast
Visibility: 14 km
Cloud details: Overcast 640 m
2019/11/15 20:00 CYQG 152000Z AUTO 31007KT 9SM OVC021 01/M03 A3030 RMK SLP270
 
CYZR - Sarnia
Updated: 11/15/2019 3:00pm
Clear
Clear
 Wind from WNW
Wind: WNW 15 km/h
Temperature: 2°C
Wind Chill: -2°C
Dew Point: -4°C
Humidity: 65%
Barometer: 1025.1 hPa
Clouds: Clear
Visibility: 14 km
2019/11/15 20:00 CYZR 152000Z AUTO 29008KT 9SM CLR 02/M04 A3027 RMK RVR MISG SLP260
CYVV - Wiarton
Updated: 11/15/2019 3:16pm
Light snow, Mostly cloudy
Light snow, Mostly cloudy
 Wind from WNW
Wind: WNW 26 km/h, Gust: 43 km/h
Temperature: 1°C
Wind Chill: -4°C
Dew Point: -5°C
Humidity: 65%
Barometer: 1023 hPa
Summary: Light Snow
Clouds: Mostly cloudy
Visibility: 19 km
Cloud details: Mostly cloudy 914 m
2019/11/15 20:16 CYVV 152016Z 30014G23KT 12SM -SN BKN030 01/M05 A3021 RMK SC7 SLP241
 
CYPQ - Peterborough
Updated: 11/15/2019 3:58pm
Overcast
Overcast
 Wind from W
Wind: W 19 km/h
Temperature: 2°C
Wind Chill: -2°C
Dew Point: -2°C
Humidity: 75%
Barometer: 1021 hPa
Clouds: Overcast
Visibility: 14 km
Cloud details: Overcast 1524 m
2019/11/15 20:58 CYPQ 152058Z AUTO 28010KT 9SM OVC050 02/M02 A3015 RMK SLP219
CYTR - Trenton
Updated: 11/15/2019 3:00pm
Overcast
Overcast
 Wind from WSW
Wind: WSW 24 km/h
Temperature: 2°C
Wind Chill: -3°C
Dew Point: -2°C
Humidity: 75%
Barometer: 1020.3 hPa
Clouds: Overcast
Visibility: 24 km
Cloud details: Partly cloudy 610 m
Overcast 1524 m
2019/11/15 20:00 CYTR 152000Z 25013KT 15SM SCT020 OVC050 02/M02 A3013 RMK SC3SC5 SLP206